Time;durP1;ratioP1;P1;durP2;ratioP2;P2;SDS_P1;SDS_P2;PMS_P1;PMS_P2;Temp;Humidity;BMP_temperature;BMP_pressure;BME280_temperature;BME280_humidity;BME280_pressure;Samples;Min_cycle;Max_cycle;Signal;HPM_P1;HPM_P2
2023/03/04 00:01:45;;;;;;;15.90;2.90;;;6.50;99.90;;;;;;5096770;28;20468;-81
2023/03/04 00:04:11;;;;;;;16.80;3.42;;;6.50;99.90;;;;;;5097663;28;20062;-81
2023/03/04 00:06:37;;;;;;;20.03;3.00;;;6.50;99.90;;;;;;5096906;28;20426;-80
2023/03/04 00:09:03;;;;;;;12.68;2.72;;;6.50;99.90;;;;;;5097326;28;20048;-81
2023/03/04 00:11:30;;;;;;;16.87;4.00;;;6.50;99.90;;;;;;5096461;28;20555;-80
2023/03/04 00:13:57;;;;;;;22.75;2.72;;;6.50;99.90;;;;;;5095261;28;20073;-81
2023/03/04 00:16:26;;;;;;;15.85;2.88;;;6.50;99.90;;;;;;5097275;28;20083;-80
2023/03/04 00:18:52;;;;;;;18.55;4.45;;;6.50;99.90;;;;;;5095808;28;20105;-81
2023/03/04 00:21:18;;;;;;;14.73;2.63;;;6.40;99.90;;;;;;5096279;28;20067;-81
2023/03/04 00:23:44;;;;;;;19.13;3.33;;;6.50;99.90;;;;;;5094663;28;20048;-80
2023/03/04 00:26:10;;;;;;;15.93;2.90;;;6.50;99.90;;;;;;5096727;28;20044;-81
2023/03/04 00:28:35;;;;;;;15.60;2.60;;;6.50;99.90;;;;;;5094991;28;20040;-81
2023/03/04 00:31:01;;;;;;;17.27;2.63;;;6.50;99.90;;;;;;5095155;28;20132;-81
2023/03/04 00:33:27;;;;;;;14.17;2.90;;;6.40;99.90;;;;;;5095217;28;20105;-80
2023/03/04 00:35:53;;;;;;;15.47;2.30;;;6.50;99.90;;;;;;5093577;28;20117;-81
2023/03/04 00:38:18;;;;;;;15.87;2.50;;;6.40;99.90;;;;;;5094901;28;20048;-80
2023/03/04 00:40:44;;;;;;;11.97;2.10;;;6.40;99.90;;;;;;5094035;28;20422;-81
2023/03/04 00:43:10;;;;;;;16.73;2.73;;;6.50;99.90;;;;;;5094354;28;20093;-81
2023/03/04 00:45:35;;;;;;;16.37;2.87;;;6.50;99.90;;;;;;5094757;28;20559;-82
2023/03/04 00:48:01;;;;;;;15.73;2.33;;;6.50;99.90;;;;;;5094699;28;20048;-81
2023/03/04 00:50:27;;;;;;;13.40;2.13;;;6.50;99.90;;;;;;5094562;28;20044;-80
2023/03/04 00:52:53;;;;;;;17.13;2.37;;;6.50;99.90;;;;;;5094436;28;20067;-80
2023/03/04 00:55:18;;;;;;;14.37;2.53;;;6.50;99.90;;;;;;5093489;28;20055;-82
2023/03/04 00:57:44;;;;;;;16.10;3.00;;;6.50;99.90;;;;;;5092937;28;20098;-81
2023/03/04 01:00:10;;;;;;;19.20;3.93;;;6.50;99.90;;;;;;5094923;28;20079;-81
2023/03/04 01:02:36;;;;;;;13.73;2.40;;;6.50;99.90;;;;;;5094396;28;20052;-81
2023/03/04 01:05:02;;;;;;;15.47;3.40;;;6.40;99.90;;;;;;5094124;28;20055;-81
2023/03/04 01:07:28;;;;;;;16.00;3.53;;;6.40;99.90;;;;;;5094275;28;20400;-80
2023/03/04 01:09:53;;;;;;;23.60;3.60;;;6.40;99.90;;;;;;5095088;28;20050;-81
2023/03/04 01:12:19;;;;;;;16.17;2.97;;;6.40;99.90;;;;;;5095071;28;20055;-81
2023/03/04 01:14:45;;;;;;;18.70;2.93;;;6.40;99.90;;;;;;5094393;28;20463;-82
2023/03/04 01:17:11;;;;;;;10.93;2.30;;;6.40;99.90;;;;;;5092899;28;20040;-81
2023/03/04 01:19:36;;;;;;;20.92;2.85;;;6.40;99.90;;;;;;5093826;28;20557;-81
2023/03/04 01:22:03;;;;;;;16.80;3.27;;;6.40;99.90;;;;;;5094215;28;20044;-81
2023/03/04 01:24:29;;;;;;;23.48;4.03;;;6.40;99.90;;;;;;5094055;28;20044;-76
2023/03/04 01:26:55;;;;;;;9.13;1.73;;;6.40;99.90;;;;;;5094541;28;20365;-81
2023/03/04 01:29:21;;;;;;;13.73;2.27;;;6.40;99.90;;;;;;5092862;28;20070;-81
2023/03/04 01:31:46;;;;;;;19.37;3.83;;;6.40;99.90;;;;;;5093887;28;20463;-81
2023/03/04 01:34:12;;;;;;;10.33;2.40;;;6.40;99.90;;;;;;5055008;28;1115536;-81
2023/03/04 01:36:38;;;;;;;18.80;2.60;;;6.40;99.90;;;;;;5094952;28;20495;-80
2023/03/04 01:39:04;;;;;;;12.53;2.97;;;6.40;99.90;;;;;;5094685;28;20500;-81
2023/03/04 01:41:30;;;;;;;13.07;2.30;;;6.40;99.90;;;;;;5094729;28;20119;-81
2023/03/04 01:43:59;;;;;;;12.55;2.15;;;6.40;99.90;;;;;;5095369;28;20085;-81
2023/03/04 01:46:25;;;;;;;13.52;2.47;;;6.40;99.90;;;;;;5094558;28;20563;-81
2023/03/04 01:48:51;;;;;;;13.32;2.17;;;6.40;99.90;;;;;;5093378;28;20044;-81
2023/03/04 01:51:19;;;;;;;15.67;2.23;;;6.40;99.90;;;;;;5094389;28;20044;-80
2023/03/04 01:53:49;;;;;;;15.27;2.42;;;6.40;99.90;;;;;;5095100;28;20368;-80
2023/03/04 01:56:20;;;;;;;13.15;2.30;;;6.30;99.90;;;;;;5094393;28;20048;-81
2023/03/04 01:59:08;;;;;;;14.88;3.03;;;6.30;99.90;;;;;;5092975;28;20060;-80
2023/03/04 02:01:35;;;;;;;10.38;2.00;;;6.30;99.90;;;;;;5094594;28;20060;-77
2023/03/04 02:04:01;;;;;;;15.27;2.70;;;6.30;99.90;;;;;;5076334;28;20051;-80
2023/03/04 02:06:27;;;;;;;13.63;2.15;;;6.40;99.90;;;;;;5095034;28;20044;-81
2023/03/04 02:08:53;;;;;;;10.03;1.97;;;6.30;99.90;;;;;;5092940;28;20387;-80
2023/03/04 02:11:18;;;;;;;14.10;2.77;;;6.30;99.90;;;;;;5094051;28;20047;-81
2023/03/04 02:13:44;;;;;;;14.57;2.27;;;6.30;99.90;;;;;;5093592;28;20040;-80
2023/03/04 02:16:10;;;;;;;19.73;2.53;;;6.30;99.90;;;;;;5076979;28;20052;-81
2023/03/04 02:18:36;;;;;;;14.30;3.15;;;6.30;99.90;;;;;;5094694;28;20044;-77
2023/03/04 02:21:01;;;;;;;16.20;2.93;;;6.30;99.90;;;;;;5092968;28;20384;-81
2023/03/04 02:23:42;;;;;;;17.07;3.57;;;6.30;99.90;;;;;;5093897;28;20087;-81
2023/03/04 02:26:18;;;;;;;14.57;3.63;;;6.30;99.90;;;;;;5094957;28;20136;-81
2023/03/04 02:28:46;;;;;;;14.45;2.67;;;6.30;99.90;;;;;;5093878;28;20054;-80
2023/03/04 02:31:26;;;;;;;15.38;2.58;;;6.30;99.90;;;;;;5094078;28;20043;-80
2023/03/04 02:33:55;;;;;;;11.90;2.25;;;6.30;99.90;;;;;;5092482;28;20052;-81
2023/03/04 02:36:21;;;;;;;15.68;2.40;;;6.30;99.90;;;;;;5093734;28;20059;-81
2023/03/04 02:38:50;;;;;;;18.73;3.15;;;6.30;99.90;;;;;;5092924;28;20056;-80
2023/03/04 02:41:19;;;;;;;12.10;2.30;;;6.30;99.90;;;;;;5092925;28;20056;-80
2023/03/04 02:43:48;;;;;;;13.02;2.40;;;6.30;99.90;;;;;;5075757;28;20044;-80
2023/03/04 02:46:14;;;;;;;20.80;2.88;;;6.30;99.90;;;;;;5093784;28;20051;-80
2023/03/04 02:48:40;;;;;;;12.50;2.87;;;6.30;99.90;;;;;;5093458;28;20468;-79
2023/03/04 02:51:06;;;;;;;16.13;2.50;;;6.30;99.90;;;;;;5093531;28;20040;-80
2023/03/04 02:53:32;;;;;;;14.70;2.50;;;6.30;99.90;;;;;;5092349;28;20048;-81
2023/03/04 02:55:57;;;;;;;15.40;3.23;;;6.30;99.90;;;;;;5093843;28;20039;-80
2023/03/04 02:58:23;;;;;;;19.30;2.37;;;6.30;99.90;;;;;;5093306;28;20052;-80
2023/03/04 03:00:49;;;;;;;22.90;2.97;;;6.30;99.90;;;;;;5092998;28;20040;-79
2023/03/04 03:03:14;;;;;;;14.33;3.17;;;6.30;99.90;;;;;;5093332;28;20184;-80
2023/03/04 03:05:40;;;;;;;11.67;1.87;;;6.30;99.90;;;;;;5093194;28;20135;-80
2023/03/04 03:08:06;;;;;;;16.00;3.00;;;6.30;99.90;;;;;;5093376;28;20055;-80
2023/03/04 03:10:32;;;;;;;14.50;2.92;;;6.30;99.90;;;;;;5093385;28;20044;-79
2023/03/04 03:12:58;;;;;;;15.90;2.58;;;6.30;99.90;;;;;;5093195;28;20127;-80
2023/03/04 03:15:24;;;;;;;14.03;2.03;;;6.30;99.90;;;;;;5093335;28;20173;-80
2023/03/04 03:17:50;;;;;;;17.90;2.90;;;6.30;99.90;;;;;;5094024;28;20347;-80
2023/03/04 03:20:17;;;;;;;17.03;2.67;;;6.30;99.90;;;;;;5091963;28;20552;-80
2023/03/04 03:22:42;;;;;;;11.77;2.35;;;6.30;99.90;;;;;;5093703;28;20055;-76
2023/03/04 03:25:10;;;;;;;17.50;2.63;;;6.30;99.90;;;;;;5093244;28;20464;-80
2023/03/04 03:27:36;;;;;;;13.30;2.17;;;6.30;99.90;;;;;;5092482;28;20369;-81
2023/03/04 03:30:03;;;;;;;15.27;2.93;;;6.30;99.90;;;;;;5092861;28;20063;-81
2023/03/04 03:32:29;;;;;;;16.55;2.97;;;6.30;99.90;;;;;;5092723;28;20051;-80
2023/03/04 03:34:54;;;;;;;17.30;3.67;;;6.30;99.90;;;;;;5093989;28;20056;-80
2023/03/04 03:37:20;;;;;;;14.03;2.30;;;6.30;99.90;;;;;;5091396;28;20130;-80
2023/03/04 03:39:46;;;;;;;19.80;3.30;;;6.30;99.90;;;;;;5093541;28;20051;-79
2023/03/04 03:42:11;;;;;;;14.97;2.83;;;6.30;99.90;;;;;;5093600;28;20055;-80
2023/03/04 03:44:37;;;;;;;12.50;1.90;;;6.30;99.90;;;;;;5093098;28;20036;-81
2023/03/04 03:47:03;;;;;;;14.20;2.40;;;6.30;99.90;;;;;;5093079;28;20432;-80
2023/03/04 03:49:28;;;;;;;11.10;2.30;;;6.30;99.90;;;;;;5092993;28;20074;-80
2023/03/04 03:51:54;;;;;;;17.37;3.07;;;6.30;99.90;;;;;;5093439;28;20082;-80
2023/03/04 03:54:20;;;;;;;12.33;2.50;;;6.30;99.90;;;;;;5092230;28;20135;-79
2023/03/04 03:56:46;;;;;;;13.82;2.95;;;6.30;99.90;;;;;;5093119;28;20089;-81
2023/03/04 03:59:12;;;;;;;9.50;2.20;;;6.30;99.90;;;;;;5095915;28;20044;-80
2023/03/04 04:01:37;;;;;;;13.13;3.00;;;6.30;99.90;;;;;;5097145;28;20051;-80
2023/03/04 04:04:03;;;;;;;17.90;2.40;;;6.30;99.90;;;;;;5095778;28;20064;-80
2023/03/04 04:06:29;;;;;;;11.47;2.90;;;6.30;99.90;;;;;;5095605;28;20048;-81
2023/03/04 04:08:54;;;;;;;13.77;1.97;;;6.30;99.90;;;;;;5096447;28;20123;-79
2023/03/04 04:11:20;;;;;;;11.33;2.33;;;6.30;99.90;;;;;;5096962;28;20052;-81
2023/03/04 04:13:46;;;;;;;13.00;2.08;;;6.30;99.90;;;;;;5096772;28;20384;-81
2023/03/04 04:16:12;;;;;;;11.60;2.07;;;6.30;99.90;;;;;;5096639;28;20107;-80
2023/03/04 04:18:38;;;;;;;11.83;2.93;;;6.30;99.90;;;;;;5096232;28;20086;-80
2023/03/04 04:21:04;;;;;;;15.77;2.30;;;6.30;99.90;;;;;;5094993;28;20052;-80
2023/03/04 04:23:30;;;;;;;8.63;2.30;;;6.30;99.90;;;;;;5096056;28;20131;-80
2023/03/04 04:25:56;;;;;;;12.63;1.67;;;6.30;99.90;;;;;;5096137;28;20130;-80
2023/03/04 04:28:23;;;;;;;12.18;2.17;;;6.30;99.90;;;;;;5096131;28;20051;-80
2023/03/04 04:30:48;;;;;;;12.85;1.92;;;6.30;99.90;;;;;;5094885;28;20051;-80
2023/03/04 04:33:14;;;;;;;10.30;1.50;;;6.30;99.90;;;;;;5095873;28;20532;-80
2023/03/04 04:35:40;;;;;;;8.50;1.87;;;6.30;99.90;;;;;;5095960;28;20442;-80
2023/03/04 04:38:07;;;;;;;8.47;1.47;;;6.40;99.90;;;;;;5095883;28;20131;-80
2023/03/04 04:40:33;;;;;;;12.77;1.85;;;6.30;99.90;;;;;;5094718;28;20048;-81
2023/03/04 04:42:58;;;;;;;13.57;1.80;;;6.30;99.90;;;;;;5095791;28;20048;-80
2023/03/04 04:45:25;;;;;;;11.00;1.97;;;6.40;99.90;;;;;;5094561;28;20040;-81
2023/03/04 04:47:51;;;;;;;10.70;2.08;;;6.30;99.90;;;;;;5094803;28;20048;-80
2023/03/04 04:50:17;;;;;;;10.23;1.98;;;6.40;99.90;;;;;;5095279;28;20118;-80
2023/03/04 04:52:43;;;;;;;8.23;1.77;;;6.40;99.90;;;;;;5095415;28;20105;-80
2023/03/04 04:55:09;;;;;;;9.47;1.70;;;6.40;99.90;;;;;;5094264;28;20090;-81
2023/03/04 04:57:36;;;;;;;11.57;1.40;;;6.30;99.90;;;;;;5095536;28;20047;-81
2023/03/04 05:00:04;;;;;;;10.38;1.50;;;6.40;99.90;;;;;;5095549;28;20070;-80
2023/03/04 05:02:30;;;;;;;10.80;1.27;;;6.40;99.90;;;;;;5095660;28;20040;-80
2023/03/04 05:04:55;;;;;;;9.87;1.60;;;6.40;99.90;;;;;;5094371;28;20048;-75
2023/03/04 05:07:21;;;;;;;11.00;1.87;;;6.40;99.90;;;;;;5077533;28;20040;-79
2023/03/04 05:09:47;;;;;;;11.30;1.43;;;6.30;99.90;;;;;;5092923;28;20108;-80
2023/03/04 05:12:13;;;;;;;12.77;1.60;;;6.30;99.90;;;;;;5095221;28;20047;-81
2023/03/04 05:14:38;;;;;;;13.83;1.97;;;6.30;99.90;;;;;;5095122;28;20040;-81
2023/03/04 05:17:04;;;;;;;7.23;1.33;;;6.20;99.90;;;;;;5095455;28;20044;-80
2023/03/04 05:19:30;;;;;;;9.80;1.50;;;6.20;99.90;;;;;;5095112;28;20048;-80
2023/03/04 05:21:55;;;;;;;8.23;1.40;;;6.20;99.90;;;;;;5095557;28;20369;-80
2023/03/04 05:24:21;;;;;;;7.37;1.90;;;6.20;99.90;;;;;;5094671;28;20063;-81
2023/03/04 05:26:47;;;;;;;6.47;1.03;;;6.20;99.90;;;;;;5093950;28;20080;-81
2023/03/04 05:29:12;;;;;;;9.63;1.33;;;6.20;99.90;;;;;;5093713;28;20126;-81
2023/03/04 05:31:38;;;;;;;11.40;1.40;;;6.20;99.90;;;;;;5094601;28;20519;-81
2023/03/04 05:34:04;;;;;;;6.23;1.20;;;6.10;99.90;;;;;;5094652;28;20048;-81
2023/03/04 05:36:30;;;;;;;11.47;2.40;;;6.10;99.90;;;;;;5094752;28;20091;-80
2023/03/04 05:38:55;;;;;;;8.00;1.50;;;6.10;99.90;;;;;;5095308;28;20082;-80
2023/03/04 05:41:21;;;;;;;8.00;1.50;;;6.10;99.90;;;;;;5094739;28;20050;-81
2023/03/04 05:43:48;;;;;;;8.83;1.53;;;6.10;99.90;;;;;;5094675;28;20105;-81
2023/03/04 05:46:16;;;;;;;10.10;1.60;;;6.10;99.90;;;;;;5095076;28;20434;-80
2023/03/04 05:48:43;;;;;;;11.43;1.88;;;6.10;99.90;;;;;;5094468;28;20044;-80
2023/03/04 05:51:09;;;;;;;7.25;1.40;;;6.10;99.90;;;;;;5094496;28;20051;-79
2023/03/04 05:53:36;;;;;;;10.27;1.30;;;6.10;99.90;;;;;;5094385;28;20379;-80
2023/03/04 05:56:13;;;;;;;9.68;1.45;;;6.10;99.90;;;;;;5095124;28;20282;-74
2023/03/04 05:58:39;;;;;;;12.13;1.63;;;6.10;99.90;;;;;;5094101;28;20047;-80
2023/03/04 06:01:05;;;;;;;6.63;1.50;;;6.10;99.90;;;;;;5095019;28;20079;-79
2023/03/04 06:03:31;;;;;;;8.20;1.98;;;6.10;99.90;;;;;;5094224;28;20126;-80
2023/03/04 06:05:57;;;;;;;9.60;1.77;;;6.10;99.90;;;;;;5093240;28;20088;-80
2023/03/04 06:08:23;;;;;;;11.33;1.80;;;6.10;99.90;;;;;;5094104;28;20387;-80
2023/03/04 06:10:52;;;;;;;13.07;2.20;;;6.10;99.90;;;;;;5093964;28;20282;-80
2023/03/04 06:13:18;;;;;;;10.95;1.67;;;6.10;99.90;;;;;;5094029;28;20306;-80
2023/03/04 06:15:44;;;;;;;7.33;1.60;;;6.10;99.90;;;;;;5076244;28;20132;-79
2023/03/04 06:18:09;;;;;;;8.50;1.80;;;6.10;99.90;;;;;;5094030;28;20078;-77
2023/03/04 06:20:35;;;;;;;13.60;2.27;;;6.20;99.90;;;;;;5093581;28;20521;-77
2023/03/04 06:23:01;;;;;;;10.65;1.80;;;6.10;99.90;;;;;;5094166;28;20496;-77
2023/03/04 06:25:27;;;;;;;8.97;1.60;;;6.10;99.90;;;;;;5093820;28;20083;-76
2023/03/04 06:27:53;;;;;;;7.53;1.50;;;6.10;99.90;;;;;;5094670;28;20076;-76
2023/03/04 06:30:19;;;;;;;5.77;1.40;;;6.10;99.90;;;;;;5093822;28;20480;-76
2023/03/04 06:32:46;;;;;;;13.83;2.30;;;6.10;99.90;;;;;;5094286;28;20048;-75
2023/03/04 06:35:13;;;;;;;7.78;1.75;;;6.10;99.90;;;;;;5093061;28;20056;-76
2023/03/04 06:37:39;;;;;;;9.57;2.13;;;6.00;99.90;;;;;;5094291;28;20052;-76
2023/03/04 06:40:06;;;;;;;10.05;1.60;;;6.10;99.90;;;;;;5092474;28;20051;-76
2023/03/04 06:42:33;;;;;;;8.23;1.95;;;6.10;99.90;;;;;;5093679;28;20098;-76
2023/03/04 06:44:59;;;;;;;8.70;2.03;;;6.10;99.90;;;;;;5075430;28;20048;-76
2023/03/04 06:47:25;;;;;;;9.20;1.47;;;6.20;99.90;;;;;;5093586;28;20051;-76
2023/03/04 06:49:51;;;;;;;6.60;1.50;;;6.20;99.90;;;;;;5075709;28;20050;-76
2023/03/04 06:52:17;;;;;;;9.60;1.60;;;6.20;99.90;;;;;;5093658;28;20094;-76
2023/03/04 06:54:43;;;;;;;11.77;1.57;;;6.20;99.90;;;;;;5093452;28;20036;-77
2023/03/04 06:57:08;;;;;;;7.97;1.50;;;6.30;99.90;;;;;;5093457;28;20105;-73
2023/03/04 06:59:34;;;;;;;9.60;1.80;;;6.30;99.90;;;;;;5092215;28;20483;-76
2023/03/04 07:02:00;;;;;;;11.03;1.60;;;6.30;99.90;;;;;;5092452;28;20043;-77
2023/03/04 07:04:26;;;;;;;11.57;1.60;;;6.30;99.90;;;;;;5093888;28;20040;-76
2023/03/04 07:06:51;;;;;;;12.63;1.97;;;6.40;99.90;;;;;;5092143;28;20074;-77
2023/03/04 07:09:17;;;;;;;8.77;1.67;;;6.40;99.90;;;;;;5092337;28;20036;-76
2023/03/04 07:11:43;;;;;;;8.13;1.63;;;6.40;99.90;;;;;;5093215;28;20047;-77
2023/03/04 07:14:09;;;;;;;11.18;1.65;;;6.40;99.90;;;;;;5093889;28;20040;-77
2023/03/04 07:16:35;;;;;;;9.77;1.77;;;6.50;99.90;;;;;;5093169;28;20407;-77
2023/03/04 07:19:01;;;;;;;9.77;1.67;;;6.50;99.90;;;;;;5092621;28;20040;-76
2023/03/04 07:21:27;;;;;;;5.87;1.73;;;6.50;99.90;;;;;;5092069;28;20480;-76
2023/03/04 07:23:53;;;;;;;9.73;2.25;;;6.50;99.90;;;;;;5092044;28;20171;-76
2023/03/04 07:26:19;;;;;;;7.30;1.73;;;6.50;99.90;;;;;;5093185;28;20118;-75
2023/03/04 07:28:45;;;;;;;10.13;2.40;;;6.60;99.90;;;;;;5093241;28;20433;-75
2023/03/04 07:31:28;;;;;;;11.27;1.95;;;6.60;99.90;;;;;;5093275;28;20118;-75
2023/03/04 07:33:56;;;;;;;7.10;2.17;;;6.60;99.90;;;;;;5096877;28;20047;-75
2023/03/04 07:36:22;;;;;;;9.18;1.88;;;6.60;99.90;;;;;;5097042;28;20483;-75
2023/03/04 07:38:49;;;;;;;9.33;2.00;;;6.50;99.90;;;;;;5097522;28;20054;-76
2023/03/04 07:41:16;;;;;;;9.23;2.00;;;6.50;99.90;;;;;;5097693;28;20364;-76
2023/03/04 07:43:43;;;;;;;12.07;2.80;;;6.60;99.90;;;;;;5097495;28;20044;-76
2023/03/04 07:46:09;;;;;;;7.35;2.30;;;6.60;99.90;;;;;;5096876;28;20105;-77
2023/03/04 07:48:36;;;;;;;13.73;1.80;;;6.70;99.90;;;;;;5096845;28;20522;-76
2023/03/04 07:51:09;;;;;;;14.15;2.80;;;6.70;99.90;;;;;;5096703;28;20051;-77
2023/03/04 07:53:35;;;;;;;12.00;2.08;;;6.80;99.90;;;;;;5096982;28;20082;-77
2023/03/04 07:56:02;;;;;;;12.55;2.47;;;6.80;99.90;;;;;;5096816;28;20099;-77
2023/03/04 07:58:28;;;;;;;13.07;2.20;;;6.80;99.90;;;;;;5096446;28;20098;-77
2023/03/04 08:00:54;;;;;;;11.87;2.20;;;6.90;99.90;;;;;;5096696;28;20490;-78
2023/03/04 08:03:19;;;;;;;18.30;3.10;;;6.90;99.90;;;;;;5096593;28;20040;-78
2023/03/04 08:05:45;;;;;;;14.67;2.40;;;6.90;99.90;;;;;;5096077;28;20093;-79
2023/03/04 08:08:11;;;;;;;17.77;3.50;;;6.90;99.90;;;;;;5096595;28;20055;-83
2023/03/04 08:10:38;;;;;;;14.90;2.63;;;6.90;99.90;;;;;;5096549;28;20052;-79
2023/03/04 08:13:06;;;;;;;16.20;2.90;;;7.00;99.90;;;;;;5095990;28;20052;-78
2023/03/04 08:15:33;;;;;;;14.82;2.65;;;7.00;99.90;;;;;;5095166;28;20040;-79
2023/03/04 08:18:00;;;;;;;16.15;2.67;;;7.10;99.90;;;;;;5095389;28;20060;-82
2023/03/04 08:20:26;;;;;;;17.58;2.50;;;7.10;99.90;;;;;;5096259;28;20040;-82
2023/03/04 08:22:52;;;;;;;12.02;2.25;;;7.10;99.90;;;;;;5094864;28;20048;-83
2023/03/04 08:25:18;;;;;;;13.17;2.90;;;7.10;99.90;;;;;;5096478;28;20044;-83
2023/03/04 08:27:43;;;;;;;14.87;2.63;;;7.00;99.90;;;;;;5096929;28;20494;-83
2023/03/04 08:30:10;;;;;;;21.03;3.90;;;7.00;99.90;;;;;;5096248;28;20391;-83
2023/03/04 08:32:36;;;;;;;13.65;2.35;;;7.00;99.90;;;;;;5096637;28;20480;-83
2023/03/04 08:35:02;;;;;;;17.33;2.83;;;7.00;99.90;;;;;;5096261;28;20087;-82
2023/03/04 08:37:31;;;;;;;20.97;3.13;;;7.00;99.90;;;;;;5096012;28;20051;-83
2023/03/04 08:39:56;;;;;;;17.33;2.75;;;6.90;99.90;;;;;;5096325;28;20522;-83
2023/03/04 08:42:23;;;;;;;22.83;4.50;;;6.90;99.90;;;;;;5094606;28;20083;-82
2023/03/04 08:44:49;;;;;;;21.40;3.45;;;6.90;99.90;;;;;;5094654;28;20040;-85
2023/03/04 08:47:15;;;;;;;17.63;2.88;;;6.90;99.90;;;;;;5096682;28;20044;-84
2023/03/04 08:49:41;;;;;;;19.63;3.70;;;7.00;99.90;;;;;;5096284;28;20044;-84
2023/03/04 08:52:07;;;;;;;16.57;3.07;;;7.00;99.90;;;;;;5095730;28;20105;-84
2023/03/04 08:54:33;;;;;;;23.65;3.50;;;7.10;99.90;;;;;;5094172;28;20044;-85
2023/03/04 08:56:59;;;;;;;15.37;3.03;;;7.10;99.90;;;;;;5094758;28;20054;-84
2023/03/04 08:59:24;;;;;;;18.00;3.40;;;7.10;99.90;;;;;;5095578;28;20392;-84
2023/03/04 09:01:50;;;;;;;19.23;3.17;;;7.10;99.90;;;;;;5077604;28;20051;-84
2023/03/04 09:04:16;;;;;;;19.60;3.20;;;7.20;99.90;;;;;;5095229;28;20044;-84
2023/03/04 09:06:41;;;;;;;18.03;2.90;;;7.20;99.90;;;;;;5096381;28;20541;-86
2023/03/04 09:09:07;;;;;;;13.70;2.33;;;7.20;99.90;;;;;;5095461;28;20044;-86
2023/03/04 09:11:33;;;;;;;16.10;2.50;;;7.20;99.90;;;;;;5095161;28;20120;-86
2023/03/04 09:13:59;;;;;;;18.93;3.13;;;7.20;99.90;;;;;;5095338;28;20388;-86
2023/03/04 09:16:24;;;;;;;15.80;3.47;;;7.20;99.90;;;;;;5095849;28;20040;-81
2023/03/04 09:18:50;;;;;;;13.43;2.30;;;7.30;99.90;;;;;;5077908;28;20051;-84
2023/03/04 09:21:17;;;;;;;18.83;3.23;;;7.30;99.90;;;;;;5095086;28;20119;-86
2023/03/04 09:23:43;;;;;;;18.50;4.40;;;7.30;99.90;;;;;;5095194;28;20114;-85
2023/03/04 09:26:19;;;;;;;17.70;2.83;;;7.30;99.90;;;;;;5095280;28;20156;-83
2023/03/04 09:28:48;;;;;;;19.63;2.87;;;7.30;99.90;;;;;;5095061;28;20490;-84
2023/03/04 09:31:14;;;;;;;19.27;3.47;;;7.30;99.90;;;;;;5094201;28;20635;-81
2023/03/04 09:33:41;;;;;;;18.35;3.50;;;7.30;99.90;;;;;;5095329;28;20375;-80
2023/03/04 09:36:10;;;;;;;19.23;3.40;;;7.30;99.90;;;;;;5094487;28;20056;-80
2023/03/04 09:38:37;;;;;;;19.10;3.33;;;7.40;99.90;;;;;;5094668;28;20366;-81
2023/03/04 09:41:09;;;;;;;22.47;3.27;;;7.40;99.90;;;;;;5093770;28;20375;-82
2023/03/04 09:43:38;;;;;;;21.80;2.90;;;7.40;99.90;;;;;;5094241;28;20713;-80
2023/03/04 09:46:14;;;;;;;17.97;3.67;;;7.40;99.90;;;;;;5094593;28;20293;-81
2023/03/04 09:48:50;;;;;;;15.50;3.00;;;7.40;99.90;;;;;;5095194;28;20271;-80
2023/03/04 09:51:57;;;;;;;14.33;2.80;;;7.50;99.90;;;;;;5095002;28;20664;-81
2023/03/04 09:54:35;;;;;;;15.80;2.90;;;7.50;99.90;;;;;;5083077;28;20302;-81
2023/03/04 09:57:50;;;;;;;12.37;2.53;;;7.60;99.90;;;;;;5094432;28;20312;-79
2023/03/04 10:00:22;;;;;;;15.50;2.27;;;7.60;99.90;;;;;;5049371;28;20646;-79
2023/03/04 10:03:10;;;;;;;13.63;2.47;;;7.60;99.90;;;;;;5095092;28;20674;-79
2023/03/04 10:05:41;;;;;;;20.03;3.50;;;7.50;99.90;;;;;;5094161;28;20732;-80
2023/03/04 10:08:33;;;;;;;14.80;2.77;;;7.50;99.90;;;;;;5094206;28;20758;-80
2023/03/04 10:11:01;;;;;;;11.57;2.60;;;7.50;99.90;;;;;;5056294;28;20646;-76
2023/03/04 10:13:37;;;;;;;16.80;2.87;;;7.60;99.90;;;;;;5093769;28;20274;-77
2023/03/04 10:16:07;;;;;;;12.77;2.83;;;7.60;99.90;;;;;;5076704;28;20266;-77
2023/03/04 10:18:38;;;;;;;10.13;1.90;;;7.70;99.90;;;;;;5094935;28;20314;-78
2023/03/04 10:21:13;;;;;;;12.40;2.60;;;7.70;99.90;;;;;;5094069;28;20279;-75
2023/03/04 10:23:40;;;;;;;11.80;2.15;;;7.70;99.90;;;;;;5093876;28;20706;-76
2023/03/04 10:26:14;;;;;;;9.10;2.00;;;7.70;99.90;;;;;;5093936;28;20054;-75
2023/03/04 10:28:41;;;;;;;7.00;1.25;;;7.70;99.90;;;;;;5092426;28;20614;-77
2023/03/04 10:31:31;;;;;;;7.90;1.57;;;7.70;99.90;;;;;;5093847;28;20131;-75
2023/03/04 10:33:57;;;;;;;8.80;1.20;;;7.80;99.90;;;;;;5093778;28;20286;-74
2023/03/04 10:36:41;;;;;;;7.27;1.40;;;7.80;99.90;;;;;;5094231;28;20294;-74
2023/03/04 10:39:18;;;;;;;6.73;1.67;;;7.90;99.90;;;;;;5093850;28;20063;-73
2023/03/04 10:41:52;;;;;;;9.83;2.13;;;7.90;99.90;;;;;;5093910;28;20713;-75
2023/03/04 10:44:19;;;;;;;7.37;1.40;;;7.90;99.90;;;;;;5094292;28;20270;-73
2023/03/04 10:46:47;;;;;;;13.70;2.47;;;7.80;99.90;;;;;;5093607;28;20630;-75
2023/03/04 10:49:17;;;;;;;13.20;2.60;;;7.70;99.90;;;;;;5094387;28;20278;-76
2023/03/04 10:51:44;;;;;;;11.90;2.60;;;7.50;99.90;;;;;;5092974;28;20280;-74
2023/03/04 10:54:38;;;;;;;12.80;2.50;;;7.40;99.90;;;;;;5092474;28;20334;-75
2023/03/04 10:57:14;;;;;;;14.80;2.87;;;7.30;99.90;;;;;;5093612;28;20278;-77
2023/03/04 10:59:57;;;;;;;12.37;2.00;;;7.40;99.90;;;;;;5092607;28;20286;-76
2023/03/04 11:02:25;;;;;;;15.73;2.40;;;7.40;99.90;;;;;;5092900;28;20274;-77
2023/03/04 11:04:54;;;;;;;15.17;2.63;;;7.50;99.90;;;;;;5092244;28;20282;-79
2023/03/04 11:07:22;;;;;;;13.53;2.93;;;7.60;99.90;;;;;;5078490;28;20753;-76
2023/03/04 11:09:48;;;;;;;10.23;2.07;;;7.70;99.90;;;;;;5097638;28;20282;-76
2023/03/04 11:12:16;;;;;;;13.17;3.00;;;7.80;99.90;;;;;;5097348;28;20289;-77
2023/03/04 11:14:48;;;;;;;17.27;2.10;;;7.90;99.90;;;;;;5097590;28;20479;-78
2023/03/04 11:17:24;;;;;;;11.77;2.03;;;8.00;99.90;;;;;;5097903;28;20283;-77
2023/03/04 11:20:13;;;;;;;16.13;3.10;;;8.10;99.90;;;;;;5079663;28;20330;-76
2023/03/04 11:22:39;;;;;;;14.40;2.53;;;8.10;99.90;;;;;;5098506;28;20289;-75
2023/03/04 11:25:16;;;;;;;12.13;2.43;;;8.10;99.90;;;;;;5097260;28;20274;-74
2023/03/04 11:27:46;;;;;;;13.53;2.70;;;8.20;99.90;;;;;;5097286;28;20595;-74
2023/03/04 11:30:38;;;;;;;19.43;2.70;;;8.20;99.90;;;;;;5096120;28;20274;-75
2023/03/04 11:33:32;;;;;;;18.67;3.10;;;8.20;99.90;;;;;;5097305;28;20762;-79
2023/03/04 11:36:21;;;;;;;12.63;2.93;;;8.20;99.90;;;;;;5097531;28;20670;-75
2023/03/04 11:38:50;;;;;;;14.90;3.63;;;8.20;99.90;;;;;;5095820;28;20335;-78
2023/03/04 11:41:21;;;;;;;16.17;3.20;;;8.20;99.90;;;;;;5096915;28;20285;-79
2023/03/04 11:43:47;;;;;;;17.70;3.50;;;8.20;99.90;;;;;;5097544;28;20270;-78
2023/03/04 11:46:46;;;;;;;16.63;3.27;;;8.20;99.90;;;;;;5095774;28;20296;-78
2023/03/04 11:49:20;;;;;;;18.57;3.67;;;8.40;99.90;;;;;;5097345;28;20285;-79
2023/03/04 11:51:55;;;;;;;19.50;3.70;;;8.50;99.90;;;;;;5096920;28;20285;-82
2023/03/04 11:54:33;;;;;;;15.20;3.20;;;8.50;99.90;;;;;;5095845;28;20464;-79
2023/03/04 11:57:23;;;;;;;22.57;3.27;;;8.50;99.90;;;;;;5097165;28;20066;-85
2023/03/04 11:59:51;;;;;;;22.97;3.80;;;8.40;99.90;;;;;;5096800;28;20348;-84
2023/03/04 12:02:31;;;;;;;17.77;3.23;;;8.30;99.90;;;;;;5096137;28;20282;-82
2023/03/04 12:05:02;;;;;;;17.70;3.50;;;8.20;99.90;;;;;;5097475;28;20273;-84
2023/03/04 12:07:42;;;;;;;18.33;3.27;;;8.10;99.90;;;;;;5095964;28;20290;-82
2023/03/04 12:10:39;;;;;;;16.00;2.67;;;8.20;99.90;;;;;;5096972;28;20274;-83
2023/03/04 12:13:43;;;;;;;10.07;2.03;;;8.10;99.90;;;;;;5096473;28;20373;-79
2023/03/04 12:16:12;;;;;;;17.23;2.60;;;8.20;99.90;;;;;;5044652;28;20290;-80
2023/03/04 12:18:49;;;;;;;12.87;2.47;;;8.20;99.90;;;;;;5095742;28;20339;-77
2023/03/04 12:21:33;;;;;;;11.47;2.23;;;8.20;99.90;;;;;;5096460;28;20388;-78
2023/03/04 12:24:25;;;;;;;16.10;2.47;;;8.20;99.90;;;;;;5078696;28;20853;-78
2023/03/04 12:26:57;;;;;;;18.37;3.10;;;8.30;99.90;;;;;;5096959;28;20274;-80
2023/03/04 12:29:40;;;;;;;16.57;3.03;;;8.40;99.90;;;;;;5095294;28;20297;-80
2023/03/04 12:32:45;;;;;;;15.70;3.10;;;8.30;99.90;;;;;;5096230;28;20757;-82
2023/03/04 12:35:16;;;;;;;18.77;4.13;;;8.20;99.90;;;;;;5095318;28;20321;-79
2023/03/04 12:38:01;;;;;;;20.90;3.97;;;8.10;99.90;;;;;;5096383;28;20283;-81
2023/03/04 12:40:47;;;;;;;12.67;2.73;;;8.10;99.90;;;;;;5096154;28;20274;-80
2023/03/04 12:43:28;;;;;;;18.13;2.83;;;8.10;99.90;;;;;;5096113;28;20289;-79
2023/03/04 12:46:06;;;;;;;14.70;2.90;;;8.10;99.90;;;;;;5096179;28;20282;-82
2023/03/04 12:48:36;;;;;;;14.17;2.60;;;8.00;99.90;;;;;;5096626;28;20286;-82
2023/03/04 12:51:35;;;;;;;15.10;2.90;;;8.10;99.90;;;;;;5096797;28;20270;-82
2023/03/04 12:54:42;;;;;;;13.73;2.73;;;8.30;99.90;;;;;;5095966;28;20754;-83
2023/03/04 12:57:14;;;;;;;15.40;2.87;;;8.40;99.90;;;;;;5084896;28;20758;-82
2023/03/04 12:59:50;;;;;;;14.53;2.93;;;8.40;99.90;;;;;;5094512;28;20290;-83